AAL544 KMCO-MYNN
Flight info
| Callsign | AAL544 |
|---|---|
| Flight time | N/A |
| Altitude | 25000 |
| Route | DDANY3 JIPOD JUNIP ZFP BR63V ZQA |
| Aircraft | A21N/M-SDE2E3FGHIRWXY/LB1 |
Departure
| Time | N/A |
|---|---|
| Airport | Orlando International Airport (KMCO) |
Arrival
| Time | 2026-05-05 00:19 |
|---|---|
| Airport | Lynden Pindling International Airport (MYNN) |
| Time | Latitude | Longitude | Altitude | Speed | Heading |
|---|---|---|---|---|---|
| 2026-05-04 23:39 | 27.95446 | -80.21927 | 25058 ft | 494 kts | 152° |
| 2026-05-04 23:39 | 27.92593 | -80.19771 | 25059 ft | 493 kts | 152° |
| 2026-05-04 23:39 | 27.89718 | -80.17647 | 25055 ft | 493 kts | 153° |
| 2026-05-04 23:39 | 27.86834 | -80.15542 | 25053 ft | 493 kts | 153° |
| 2026-05-04 23:40 | 27.83956 | -80.13448 | 25054 ft | 493 kts | 153° |
| 2026-05-04 23:40 | 27.81066 | -80.11347 | 25052 ft | 493 kts | 153° |
| 2026-05-04 23:40 | 27.78181 | -80.09251 | 25052 ft | 494 kts | 153° |
| 2026-05-04 23:40 | 27.75293 | -80.07154 | 25053 ft | 494 kts | 153° |
| 2026-05-04 23:41 | 27.72443 | -80.05087 | 25052 ft | 494 kts | 153° |
| 2026-05-04 23:41 | 27.69550 | -80.02989 | 25053 ft | 494 kts | 153° |
| 2026-05-04 23:41 | 27.66662 | -80.00895 | 25052 ft | 494 kts | 153° |
| 2026-05-04 23:41 | 27.63769 | -79.98798 | 25051 ft | 494 kts | 153° |
| 2026-05-04 23:42 | 27.60874 | -79.96701 | 25052 ft | 495 kts | 153° |
| 2026-05-04 23:42 | 27.57977 | -79.94604 | 25049 ft | 495 kts | 153° |
| 2026-05-04 23:42 | 27.55082 | -79.92510 | 25050 ft | 495 kts | 153° |
| 2026-05-04 23:42 | 27.52183 | -79.90415 | 25049 ft | 495 kts | 153° |
| 2026-05-04 23:43 | 27.49290 | -79.88326 | 25047 ft | 495 kts | 153° |
| 2026-05-04 23:43 | 27.46388 | -79.86233 | 25045 ft | 496 kts | 153° |
| 2026-05-04 23:43 | 27.43479 | -79.84136 | 25049 ft | 497 kts | 153° |
| 2026-05-04 23:43 | 27.40568 | -79.82037 | 25046 ft | 497 kts | 153° |
| 2026-05-04 23:44 | 27.37661 | -79.79942 | 25048 ft | 497 kts | 153° |
| 2026-05-04 23:44 | 27.34751 | -79.77845 | 25051 ft | 497 kts | 153° |
| 2026-05-04 23:44 | 27.31877 | -79.75778 | 25047 ft | 497 kts | 153° |
| 2026-05-04 23:44 | 27.28959 | -79.73681 | 25043 ft | 497 kts | 153° |
| 2026-05-04 23:45 | 27.26066 | -79.71542 | 25043 ft | 500 kts | 150° |
| 2026-05-04 23:45 | 27.23381 | -79.69029 | 25034 ft | 509 kts | 139° |
| 2026-05-04 23:45 | 27.21017 | -79.66045 | 25049 ft | 511 kts | 135° |
| 2026-05-04 23:45 | 27.18717 | -79.62995 | 25047 ft | 511 kts | 135° |
| 2026-05-04 23:46 | 27.16416 | -79.59961 | 25046 ft | 511 kts | 135° |
| 2026-05-04 23:46 | 27.14087 | -79.56935 | 25046 ft | 511 kts | 136° |
| 2026-05-04 23:46 | 27.11753 | -79.53925 | 25041 ft | 511 kts | 136° |
| 2026-05-04 23:46 | 27.09451 | -79.50966 | 25043 ft | 511 kts | 136° |
| 2026-05-04 23:47 | 27.07108 | -79.47959 | 25041 ft | 511 kts | 136° |
| 2026-05-04 23:47 | 27.04768 | -79.44959 | 25043 ft | 512 kts | 136° |
| 2026-05-04 23:47 | 27.02424 | -79.41959 | 25044 ft | 512 kts | 136° |
| 2026-05-04 23:47 | 27.00078 | -79.38955 | 25042 ft | 512 kts | 136° |
| 2026-05-04 23:48 | 26.97730 | -79.35948 | 25040 ft | 512 kts | 136° |
| 2026-05-04 23:48 | 26.95407 | -79.32974 | 25038 ft | 512 kts | 136° |
| 2026-05-04 23:48 | 26.93060 | -79.29962 | 25036 ft | 512 kts | 136° |
| 2026-05-04 23:48 | 26.90715 | -79.26954 | 25037 ft | 512 kts | 136° |
| 2026-05-04 23:49 | 26.88369 | -79.23953 | 25038 ft | 513 kts | 136° |
| 2026-05-04 23:49 | 26.86018 | -79.20950 | 25036 ft | 513 kts | 136° |
| 2026-05-04 23:49 | 26.83663 | -79.17944 | 25037 ft | 513 kts | 136° |
| 2026-05-04 23:49 | 26.81311 | -79.14946 | 25037 ft | 513 kts | 136° |
| 2026-05-04 23:50 | 26.78988 | -79.11985 | 25037 ft | 513 kts | 136° |
| 2026-05-04 23:50 | 26.76633 | -79.08986 | 25035 ft | 513 kts | 136° |
| 2026-05-04 23:50 | 26.74272 | -79.05983 | 25034 ft | 513 kts | 136° |
| 2026-05-04 23:50 | 26.71915 | -79.02988 | 25031 ft | 513 kts | 136° |
| 2026-05-04 23:51 | 26.69555 | -78.99991 | 25029 ft | 513 kts | 136° |
| 2026-05-04 23:51 | 26.67201 | -78.96999 | 25030 ft | 513 kts | 136° |
| 2026-05-04 23:51 | 26.64839 | -78.94000 | 25026 ft | 513 kts | 136° |
| 2026-05-04 23:51 | 26.62483 | -78.91012 | 25026 ft | 513 kts | 136° |
| 2026-05-04 23:52 | 26.60120 | -78.88020 | 25021 ft | 513 kts | 136° |
| 2026-05-04 23:52 | 26.57757 | -78.85026 | 25020 ft | 513 kts | 136° |
| 2026-05-04 23:52 | 26.55399 | -78.82041 | 25019 ft | 513 kts | 136° |
| 2026-05-04 23:52 | 26.53138 | -78.79013 | 25013 ft | 517 kts | 130° |
| 2026-05-04 23:53 | 26.51307 | -78.75539 | 25012 ft | 524 kts | 118° |
| 2026-05-04 23:53 | 26.50035 | -78.71729 | 25022 ft | 527 kts | 111° |
| 2026-05-04 23:53 | 26.48896 | -78.67841 | 25031 ft | 527 kts | 110° |
| 2026-05-04 23:53 | 26.47762 | -78.63950 | 25023 ft | 527 kts | 110° |
| 2026-05-04 23:54 | 26.46615 | -78.60068 | 25022 ft | 527 kts | 111° |
| 2026-05-04 23:54 | 26.45297 | -78.56266 | 25016 ft | 524 kts | 118° |
| 2026-05-04 23:54 | 26.43453 | -78.52798 | 25019 ft | 517 kts | 130° |
| 2026-05-04 23:54 | 26.41259 | -78.49626 | 25031 ft | 515 kts | 133° |
| 2026-05-04 23:55 | 26.39012 | -78.46511 | 25027 ft | 515 kts | 133° |
| 2026-05-04 23:55 | 26.36799 | -78.43448 | 25024 ft | 515 kts | 133° |
| 2026-05-04 23:55 | 26.32331 | -78.37200 | 25025 ft | 515 kts | 133° |
| 2026-05-04 23:56 | 26.30105 | -78.34076 | 25021 ft | 515 kts | 133° |
| 2026-05-04 23:56 | 26.27878 | -78.30957 | 25020 ft | 514 kts | 133° |
| 2026-05-04 23:56 | 26.25651 | -78.27840 | 25020 ft | 514 kts | 133° |
| 2026-05-04 23:56 | 26.23420 | -78.24724 | 25022 ft | 514 kts | 133° |
| 2026-05-04 23:57 | 26.21193 | -78.21610 | 25019 ft | 514 kts | 133° |
| 2026-05-04 23:57 | 26.18995 | -78.18535 | 25017 ft | 514 kts | 133° |
| 2026-05-04 23:57 | 26.16770 | -78.15426 | 25018 ft | 514 kts | 133° |
| 2026-05-04 23:57 | 26.14537 | -78.12312 | 25018 ft | 514 kts | 133° |
| 2026-05-04 23:58 | 26.12308 | -78.09204 | 25018 ft | 514 kts | 133° |
| 2026-05-04 23:58 | 26.10084 | -78.06109 | 25017 ft | 513 kts | 133° |
| 2026-05-04 23:58 | 26.07879 | -78.03041 | 24645 ft | 510 kts | 133° |
| 2026-05-04 23:58 | 26.05656 | -77.99948 | 24315 ft | 513 kts | 133° |
| 2026-05-04 23:59 | 26.03467 | -77.96903 | 23750 ft | 507 kts | 133° |
| 2026-05-04 23:59 | 26.01283 | -77.93867 | 22943 ft | 500 kts | 133° |
| 2026-05-04 23:59 | 25.99116 | -77.90860 | 22238 ft | 495 kts | 133° |
| 2026-05-04 23:59 | 25.96987 | -77.87901 | 21785 ft | 486 kts | 133° |
| 2026-05-05 00:00 | 25.94894 | -77.84998 | 21390 ft | 477 kts | 133° |
| 2026-05-05 00:00 | 25.94190 | -77.84025 | 21227 ft | 476 kts | 133° |
| 2026-05-05 00:00 | 25.90760 | -77.79284 | 20266 ft | 471 kts | 133° |
| 2026-05-05 00:00 | 25.88720 | -77.76460 | 19739 ft | 467 kts | 133° |
| 2026-05-05 00:01 | 25.86692 | -77.73653 | 19169 ft | 463 kts | 133° |
| 2026-05-05 00:01 | 25.84721 | -77.70926 | 18583 ft | 456 kts | 132° |
| 2026-05-05 00:01 | 25.82747 | -77.68198 | 17900 ft | 451 kts | 132° |
| 2026-05-05 00:01 | 25.80789 | -77.65499 | 17199 ft | 448 kts | 132° |
| 2026-05-05 00:02 | 25.78841 | -77.62813 | 16589 ft | 444 kts | 132° |
| 2026-05-05 00:02 | 25.76912 | -77.60151 | 16034 ft | 441 kts | 132° |
| 2026-05-05 00:02 | 25.74997 | -77.57513 | 15506 ft | 437 kts | 132° |
| 2026-05-05 00:02 | 25.73095 | -77.54895 | 14999 ft | 434 kts | 132° |
| 2026-05-05 00:03 | 25.71197 | -77.52325 | 14562 ft | 427 kts | 135° |
| 2026-05-05 00:03 | 25.69027 | -77.50205 | 14157 ft | 422 kts | 150° |
| 2026-05-05 00:03 | 25.66437 | -77.48846 | 13748 ft | 403 kts | 167° |
| 2026-05-05 00:03 | 25.63754 | -77.48341 | 13439 ft | 382 kts | 180° |
| 2026-05-05 00:04 | 25.61161 | -77.48192 | 13214 ft | 366 kts | 182° |
| 2026-05-05 00:04 | 25.58669 | -77.48072 | 13020 ft | 352 kts | 182° |
| 2026-05-05 00:04 | 25.56273 | -77.47943 | 12817 ft | 338 kts | 181° |
| 2026-05-05 00:04 | 25.53977 | -77.47810 | 12435 ft | 323 kts | 181° |
| 2026-05-05 00:05 | 25.51783 | -77.47679 | 12092 ft | 309 kts | 181° |
| 2026-05-05 00:05 | 25.49672 | -77.47553 | 11672 ft | 299 kts | 181° |
| 2026-05-05 00:05 | 25.47625 | -77.47430 | 11065 ft | 298 kts | 181° |
| 2026-05-05 00:05 | 25.45562 | -77.47305 | 10465 ft | 297 kts | 181° |
| 2026-05-05 00:06 | 25.43505 | -77.47180 | 9880 ft | 295 kts | 180° |
| 2026-05-05 00:06 | 25.41473 | -77.47055 | 9315 ft | 291 kts | 180° |
| 2026-05-05 00:06 | 25.39462 | -77.46931 | 8697 ft | 289 kts | 180° |
| 2026-05-05 00:06 | 25.37464 | -77.46808 | 8114 ft | 286 kts | 180° |
| 2026-05-05 00:07 | 25.35489 | -77.46686 | 7539 ft | 283 kts | 179° |
| 2026-05-05 00:07 | 25.33531 | -77.46565 | 6947 ft | 281 kts | 179° |
| 2026-05-05 00:07 | 25.31592 | -77.46445 | 6408 ft | 277 kts | 179° |
| 2026-05-05 00:07 | 25.29679 | -77.46329 | 5806 ft | 273 kts | 180° |
| 2026-05-05 00:08 | 25.27836 | -77.46492 | 5185 ft | 267 kts | 199° |
| 2026-05-05 00:08 | 25.26267 | -77.47508 | 4515 ft | 263 kts | 227° |
| 2026-05-05 00:08 | 25.25358 | -77.49235 | 3796 ft | 265 kts | 251° |
| 2026-05-05 00:08 | 25.24824 | -77.51217 | 3274 ft | 271 kts | 255° |
| 2026-05-05 00:09 | 25.24357 | -77.53214 | 3078 ft | 265 kts | 256° |
| 2026-05-05 00:09 | 25.23926 | -77.55183 | 2937 ft | 264 kts | 256° |
| 2026-05-05 00:09 | 25.23524 | -77.57152 | 2793 ft | 259 kts | 257° |
| 2026-05-05 00:09 | 25.23369 | -77.59085 | 2573 ft | 252 kts | 278° |
| 2026-05-05 00:10 | 25.24046 | -77.60841 | 2192 ft | 251 kts | 308° |
| 2026-05-05 00:10 | 25.25138 | -77.62268 | 2055 ft | 241 kts | 313° |
| 2026-05-05 00:10 | 25.26250 | -77.63609 | 1923 ft | 235 kts | 314° |
| 2026-05-05 00:10 | 25.27345 | -77.64934 | 1784 ft | 233 kts | 315° |
| 2026-05-05 00:11 | 25.28099 | -77.66490 | 1787 ft | 236 kts | 278° |
| 2026-05-05 00:11 | 25.27807 | -77.68252 | 1868 ft | 237 kts | 237° |
| 2026-05-05 00:11 | 25.26594 | -77.69405 | 1916 ft | 233 kts | 197° |
| 2026-05-05 00:11 | 25.25031 | -77.69429 | 1897 ft | 225 kts | 155° |
| 2026-05-05 00:12 | 25.23777 | -77.68441 | 1814 ft | 221 kts | 131° |
| 2026-05-05 00:12 | 25.22733 | -77.67219 | 1805 ft | 223 kts | 130° |
| 2026-05-05 00:12 | 25.22377 | -77.66797 | 1806 ft | 223 kts | 130° |
| 2026-05-05 00:14 | 25.22013 | -77.66358 | 1802 ft | 223 kts | 130° |
| 2026-05-05 00:14 | 25.20936 | -77.65118 | 1860 ft | 223 kts | 133° |
| 2026-05-05 00:15 | 25.19825 | -77.63899 | 1942 ft | 227 kts | 134° |
| 2026-05-05 00:15 | 25.18715 | -77.62666 | 1976 ft | 225 kts | 133° |
| 2026-05-05 00:15 | 25.17609 | -77.61431 | 1998 ft | 225 kts | 134° |
| 2026-05-05 00:15 | 25.16506 | -77.60201 | 2002 ft | 226 kts | 133° |
| 2026-05-05 00:16 | 25.15401 | -77.58966 | 2010 ft | 227 kts | 134° |
| 2026-05-05 00:16 | 25.14294 | -77.57729 | 2016 ft | 227 kts | 134° |
| 2026-05-05 00:16 | 25.13208 | -77.56516 | 2003 ft | 213 kts | 133° |
| 2026-05-05 00:16 | 25.12212 | -77.55404 | 1956 ft | 204 kts | 134° |
| 2026-05-05 00:17 | 25.11221 | -77.54297 | 1738 ft | 202 kts | 133° |
| 2026-05-05 00:17 | 25.10264 | -77.53230 | 1498 ft | 187 kts | 133° |
| 2026-05-05 00:17 | 25.09384 | -77.52247 | 1267 ft | 173 kts | 133° |
| 2026-05-05 00:17 | 25.08579 | -77.51349 | 1031 ft | 152 kts | 132° |
| 2026-05-05 00:18 | 25.07893 | -77.50584 | 812 ft | 135 kts | 132° |
| 2026-05-05 00:18 | 25.07242 | -77.49856 | 643 ft | 132 kts | 131° |
| 2026-05-05 00:18 | 25.06596 | -77.49134 | 462 ft | 132 kts | 131° |
| 2026-05-05 00:18 | 25.05959 | -77.48428 | 279 ft | 131 kts | 133° |
| 2026-05-05 00:19 | 25.05322 | -77.47725 | 99 ft | 129 kts | 134° |
| 2026-05-05 00:19 | 25.04698 | -77.47034 | 27 ft | 120 kts | 134° |
| 2026-05-05 00:19 | 25.04210 | -77.46490 | 23 ft | 76 kts | 134° |
| 2026-05-05 00:19 | 25.03966 | -77.46226 | 24 ft | 34 kts | 133° |
| 2026-05-05 00:20 | 25.03800 | -77.46030 | 25 ft | 36 kts | 133° |
| 2026-05-05 00:20 | 25.03785 | -77.45909 | 24 ft | 17 kts | 49° |
| 2026-05-05 00:20 | 25.03887 | -77.45873 | 23 ft | 19 kts | 312° |
| 2026-05-05 00:20 | 25.03980 | -77.45983 | 24 ft | 20 kts | 316° |
| 2026-05-05 00:21 | 25.04086 | -77.46097 | 24 ft | 22 kts | 316° |
| 2026-05-05 00:21 | 25.04199 | -77.46218 | 24 ft | 24 kts | 316° |
| 2026-05-05 00:21 | 25.04318 | -77.46352 | 22 ft | 25 kts | 314° |
| 2026-05-05 00:21 | 25.04446 | -77.46496 | 23 ft | 27 kts | 314° |
| 2026-05-05 00:22 | 25.04582 | -77.46646 | 25 ft | 28 kts | 315° |
| 2026-05-05 00:22 | 25.04723 | -77.46803 | 25 ft | 29 kts | 316° |
| 2026-05-05 00:22 | 25.04839 | -77.46924 | 25 ft | 7 kts | 317° |
| 2026-05-05 00:22 | 25.04890 | -77.46950 | 25 ft | 10 kts | 2° |
| 2026-05-05 00:23 | 25.04950 | -77.46896 | 22 ft | 14 kts | 65° |
| 2026-05-05 00:23 | 25.04932 | -77.46803 | 22 ft | 6 kts | 142° |
| 2026-05-05 00:23 | 25.04909 | -77.46786 | 22 ft | 2 kts | 145° |
| 2026-05-05 00:23 | 25.04899 | -77.46778 | 22 ft | 0 kts | 146° |
| 2026-05-05 00:39 | 25.04916 | -77.46791 | 24 ft | 4 kts | 145° |
| 2026-05-05 00:40 | 25.04939 | -77.46808 | 26 ft | 4 kts | 155° |
| 2026-05-05 00:40 | 25.04960 | -77.46813 | 25 ft | 4 kts | 214° |
| 2026-05-05 00:40 | 25.04964 | -77.46809 | 24 ft | 2 kts | 246° |
| 2026-05-05 00:43 | 25.04962 | -77.46814 | 25 ft | 2 kts | 246° |
| 2026-05-05 00:43 | 25.04950 | -77.46843 | 24 ft | 6 kts | 245° |
| 2026-05-05 00:43 | 25.04924 | -77.46905 | 23 ft | 11 kts | 244° |
| 2026-05-05 00:44 | 25.04909 | -77.47002 | 23 ft | 16 kts | 291° |
| 2026-05-05 00:44 | 25.04994 | -77.47105 | 24 ft | 20 kts | 315° |
| 2026-05-05 00:44 | 25.05101 | -77.47228 | 23 ft | 24 kts | 314° |
| 2026-05-05 00:44 | 25.05194 | -77.47330 | 24 ft | 7 kts | 310° |
| 2026-05-05 00:45 | 25.05219 | -77.47391 | 24 ft | 11 kts | 275° |
| 2026-05-05 00:45 | 25.05199 | -77.47487 | 26 ft | 15 kts | 248° |
| 2026-05-05 00:45 | 25.05124 | -77.47504 | 26 ft | 5 kts | 140° |
| 2026-05-05 00:45 | 25.05109 | -77.47487 | 25 ft | 0 kts | 134° |
| 2026-05-05 00:47 | 25.05049 | -77.47418 | 24 ft | 53 kts | 134° |
| 2026-05-05 00:47 | 25.04499 | -77.46808 | 39 ft | 164 kts | 134° |
| 2026-05-05 00:47 | 25.03617 | -77.45841 | 977 ft | 186 kts | 134° |
| 2026-05-05 00:47 | 25.02653 | -77.44820 | 2337 ft | 195 kts | 135° |
| 2026-05-05 00:48 | 25.02029 | -77.43496 | 3378 ft | 212 kts | 99° |
| 2026-05-05 00:48 | 25.02364 | -77.41786 | 3785 ft | 255 kts | 58° |
| 2026-05-05 00:48 | 25.03627 | -77.40296 | 4534 ft | 274 kts | 37° |
| 2026-05-05 00:48 | 25.05335 | -77.39430 | 5598 ft | 277 kts | 8° |
| 2026-05-05 00:49 | 25.07234 | -77.39589 | 6673 ft | 277 kts | 337° |
| 2026-05-05 00:49 | 25.08832 | -77.40728 | 7749 ft | 274 kts | 314° |
| 2026-05-05 00:49 | 25.10173 | -77.42215 | 8866 ft | 278 kts | 311° |
| 2026-05-05 00:49 | 25.11536 | -77.43753 | 10016 ft | 282 kts | 311° |
| 2026-05-05 00:50 | 25.12969 | -77.45332 | 10703 ft | 304 kts | 312° |
| 2026-05-05 00:50 | 25.14547 | -77.47045 | 11101 ft | 332 kts | 312° |
| 2026-05-05 00:50 | 25.16268 | -77.48898 | 11461 ft | 359 kts | 313° |
| 2026-05-05 00:50 | 25.18119 | -77.50870 | 11870 ft | 379 kts | 313° |
| 2026-05-05 00:51 | 25.20017 | -77.52884 | 12563 ft | 386 kts | 313° |
| 2026-05-05 00:51 | 25.21965 | -77.54949 | 13371 ft | 390 kts | 313° |
| 2026-05-05 00:51 | 25.23925 | -77.57033 | 14125 ft | 393 kts | 312° |
| 2026-05-05 00:51 | 25.25892 | -77.59139 | 14874 ft | 393 kts | 312° |
| 2026-05-05 00:52 | 25.27845 | -77.61227 | 15833 ft | 389 kts | 312° |
| 2026-05-05 00:52 | 25.29780 | -77.63280 | 16909 ft | 382 kts | 312° |
| 2026-05-05 00:52 | 25.31682 | -77.65298 | 18020 ft | 376 kts | 311° |
| 2026-05-05 00:52 | 25.33564 | -77.67299 | 18967 ft | 375 kts | 311° |
| 2026-05-05 00:53 | 25.35445 | -77.69299 | 19704 ft | 377 kts | 311° |
| 2026-05-05 00:53 | 25.37346 | -77.71325 | 20396 ft | 381 kts | 311° |
| 2026-05-05 00:53 | 25.39258 | -77.73367 | 21100 ft | 385 kts | 311° |
| 2026-05-05 00:53 | 25.41198 | -77.75436 | 21822 ft | 389 kts | 310° |
| 2026-05-05 00:54 | 25.43145 | -77.77479 | 22544 ft | 394 kts | 312° |
| 2026-05-05 00:54 | 25.45212 | -77.79487 | 23261 ft | 398 kts | 313° |
| 2026-05-05 00:54 | 25.47298 | -77.81491 | 23752 ft | 400 kts | 313° |